Terminal Aerodrome Forecast
Issued by NWS

Home | Current Version | Previous Version | Text Only | Print | Product List | Glossary On
Versions: 1 2 3 4 5 6 7 8 9 10 11 12 13 14 15 16 17
000
FTUS44 KTSA 021004 AAA
TAFFYV
TAF AMD
KFYV 021004Z 0210/0306 00000KT P6SM SKC
      TEMPO 0210/0213 3SM BR
     FM021500 19008KT P6SM FEW050
     FM030000 VRB03KT P6SM SKC=

USA.gov is the U.S. government's official web portal to all federal, state and local government web resources and services.